Chickerell, United Kingdom
Current Conditions -  °F | °C
As of 8:50 PM on Tuesday 25 Nov 2014 (Local Time) from EGDY Reporting Station
Moderate Rain Moderate Rain  
Wind Chill:   Ceiling: 600
Heat Index:   Visibility: 3mi
Dew Point:   Wind: 6mph
Humidity: 100%   Direction: 20°NNE
Pressure: 30"   Gusts: NA
Location:  50.62°N, 2.5°W
Report Text: EGDY 252050Z AUTO 02005KT 5000 RA BKN006/// BKN015/// 06/06 Q1016
Loading
Personal Weather Stations






























Interactive Weather Map New forecast layout! Learn more

10-Day Weather Forecast

Advertisements
Track Severe Weather on mobile